Time;durP1;ratioP1;P1;durP2;ratioP2;P2;SDS_P1;SDS_P2;PMS_P1;PMS_P2;Temp;Humidity;BMP_temperature;BMP_pressure;BME280_temperature;BME280_humidity;BME280_pressure;Samples;Min_cycle;Max_cycle;Signal;HPM_P1;HPM_P2
2023/08/08 00:00:24;;;;;;;5.40;1.80;;;;;;;15.34;78.03;99507.39;102539;278;105162;-55
2023/08/08 00:03:21;;;;;;;3.90;1.60;;;;;;;15.31;77.92;99510.55;102472;278;112572;-57
2023/08/08 00:05:55;;;;;;;2.90;1.70;;;;;;;15.26;77.77;99515.67;102518;278;96738;-55
2023/08/08 00:08:35;;;;;;;4.30;1.60;;;;;;;15.21;77.74;99517.25;102504;278;97456;-56
2023/08/08 00:11:17;;;;;;;4.80;2.50;;;;;;;15.17;77.58;99526.70;102517;278;120937;-55
2023/08/08 00:13:58;;;;;;;5.20;2.00;;;;;;;15.09;77.46;99530.51;102551;278;105434;-55
2023/08/08 00:16:36;;;;;;;4.60;1.80;;;;;;;15.04;77.39;99531.15;102534;278;114514;-54
2023/08/08 00:19:11;;;;;;;4.30;1.80;;;;;;;14.96;77.58;99533.42;102504;278;97177;-53
2023/08/08 00:21:46;;;;;;;5.40;2.10;;;;;;;14.90;77.49;99537.36;102611;278;98415;-56
2023/08/08 00:24:26;;;;;;;5.60;1.90;;;;;;;14.91;77.44;99545.60;102521;279;120907;-56
2023/08/08 00:27:04;;;;;;;3.00;1.80;;;;;;;14.88;77.39;99543.35;102542;278;106363;-57
2023/08/08 00:29:42;;;;;;;3.80;1.80;;;;;;;14.86;77.36;99546.41;102489;278;112730;-58
2023/08/08 00:32:22;;;;;;;4.40;1.60;;;;;;;14.82;77.44;99548.55;102536;278;93520;-54
2023/08/08 00:35:06;;;;;;;4.90;2.60;;;;;;;14.84;77.17;99550.95;102531;278;98332;-54
2023/08/08 00:37:43;;;;;;;4.00;1.70;;;;;;;14.85;77.01;99550.35;102550;278;121508;-53
2023/08/08 00:40:25;;;;;;;5.50;2.50;;;;;;;14.87;77.00;99556.12;102512;274;105552;-54
2023/08/08 00:43:05;;;;;;;6.10;1.80;;;;;;;14.88;76.77;99556.45;102539;279;115156;-54
2023/08/08 00:45:44;;;;;;;3.40;1.90;;;;;;;14.87;76.79;99558.47;102555;278;95025;-55
2023/08/08 00:48:20;;;;;;;3.70;1.60;;;;;;;14.84;76.61;99557.06;102494;279;97834;-57
2023/08/08 00:51:01;;;;;;;4.60;2.00;;;;;;;14.83;76.49;99560.17;102524;278;120787;-56
2023/08/08 00:53:35;;;;;;;5.40;2.00;;;;;;;14.80;76.51;99560.48;102559;278;104985;-56
2023/08/08 00:56:16;;;;;;;3.40;1.60;;;;;;;14.76;76.38;99567.29;102552;279;115224;-56
2023/08/08 00:58:55;;;;;;;5.50;1.70;;;;;;;14.71;76.38;99581.26;102526;278;96940;-56
2023/08/08 01:01:37;;;;;;;4.50;1.70;;;;;;;14.67;76.32;99586.06;102528;279;97315;-58
2023/08/08 01:04:14;;;;;;;3.80;1.80;;;;;;;14.63;76.29;99590.80;102551;278;119001;-56
2023/08/08 01:07:03;;;;;;;5.90;2.10;;;;;;;14.60;76.29;99595.72;102559;278;105057;-58
2023/08/08 01:09:45;;;;;;;4.40;1.80;;;;;;;14.56;76.46;99593.89;102523;278;114370;-58
2023/08/08 01:12:26;;;;;;;6.80;1.90;;;;;;;14.46;76.43;99592.05;102491;278;96431;-54
2023/08/08 01:15:08;;;;;;;4.70;1.90;;;;;;;14.42;76.52;99591.13;102505;279;98285;-55
2023/08/08 01:17:47;;;;;;;6.00;2.30;;;;;;;14.40;76.53;99586.56;102532;278;121026;-54
2023/08/08 01:20:24;;;;;;;6.70;2.10;;;;;;;14.35;76.80;99592.06;102527;278;105165;-53
2023/08/08 01:23:17;;;;;;;4.20;1.80;;;;;;;14.30;76.72;99594.80;102547;279;113842;-55
2023/08/08 01:26:00;;;;;;;5.50;1.90;;;;;;;14.25;76.72;99599.55;102519;279;94877;-54
2023/08/08 01:28:42;;;;;;;4.30;2.10;;;;;;;14.21;77.01;99604.92;102563;278;98054;-55
2023/08/08 01:31:21;;;;;;;4.60;1.90;;;;;;;14.15;76.85;99605.27;102534;279;121443;-56
2023/08/08 01:34:02;;;;;;;6.20;2.00;;;;;;;14.13;77.14;99612.64;102545;279;104733;-56
2023/08/08 01:36:49;;;;;;;4.20;1.70;;;;;;;14.10;77.09;99616.05;102544;278;112763;-57
2023/08/08 01:39:32;;;;;;;6.10;2.30;;;;;;;14.07;77.15;99621.43;102497;279;96548;-58
2023/08/08 01:42:09;;;;;;;5.60;1.90;;;;;;;14.02;77.01;99621.04;102566;278;97480;-54
2023/08/08 01:44:49;;;;;;;6.30;2.20;;;;;;;14.00;77.09;99624.28;102512;278;122299;-54
2023/08/08 01:47:29;;;;;;;2.70;1.60;;;;;;;13.96;77.19;99626.63;102586;278;105434;-55
2023/08/08 01:50:04;;;;;;;4.90;1.90;;;;;;;13.91;77.04;99628.30;102505;278;114054;-55
2023/08/08 01:52:40;;;;;;;5.40;2.10;;;;;;;13.87;77.27;99626.27;102544;279;94043;-52
2023/08/08 01:55:16;;;;;;;3.90;1.90;;;;;;;13.88;77.52;99627.34;102518;278;95893;-54
2023/08/08 01:57:50;;;;;;;5.20;2.20;;;;;;;13.91;77.43;99635.52;102545;278;121376;-54
2023/08/08 02:00:28;;;;;;;5.60;1.80;;;;;;;13.93;77.30;99636.91;102526;278;106034;-54
2023/08/08 02:03:06;;;;;;;5.00;2.10;;;;;;;13.91;77.40;99635.56;102491;278;113343;-55
2023/08/08 02:05:42;;;;;;;6.10;2.00;;;;;;;13.89;77.29;99635.83;102532;278;98270;-56
2023/08/08 02:08:18;;;;;;;7.30;2.00;;;;;;;13.86;77.49;99638.40;102507;279;98441;-57
2023/08/08 02:10:52;;;;;;;5.20;2.40;;;;;;;13.85;77.45;99641.63;102555;279;119013;-55
2023/08/08 02:13:31;;;;;;;3.70;2.20;;;;;;;13.83;77.61;99639.35;102542;279;104836;-54
2023/08/08 02:16:05;;;;;;;4.60;1.90;;;;;;;13.77;77.49;99651.55;102508;278;114357;-55
2023/08/08 02:18:44;;;;;;;5.00;2.20;;;;;;;13.72;77.61;99650.84;102540;278;96943;-55
2023/08/08 02:21:22;;;;;;;5.70;2.20;;;;;;;13.66;77.49;99657.44;102556;278;97078;-57
2023/08/08 02:23:59;;;;;;;3.50;1.80;;;;;;;13.62;77.45;99663.50;102525;278;119827;-57
2023/08/08 02:26:39;;;;;;;5.00;1.90;;;;;;;13.58;77.53;99668.05;102514;278;103719;-55
2023/08/08 02:29:18;;;;;;;4.80;2.10;;;;;;;13.56;77.66;99670.71;102502;278;114580;-54
2023/08/08 02:31:54;;;;;;;4.70;1.90;;;;;;;13.55;77.72;99672.81;102518;279;94740;-53
2023/08/08 02:34:35;;;;;;;7.40;2.00;;;;;;;13.51;77.77;99679.56;102512;279;97791;-52
2023/08/08 02:37:15;;;;;;;5.00;2.30;;;;;;;13.45;77.68;99677.05;102544;278;121280;-57
2023/08/08 02:39:55;;;;;;;5.80;2.50;;;;;;;13.42;77.59;99684.95;102544;278;105678;-57
2023/08/08 02:42:36;;;;;;;4.10;2.10;;;;;;;13.38;77.73;99688.35;102540;278;114830;-56
2023/08/08 02:45:13;;;;;;;6.30;2.20;;;;;;;13.35;77.63;99687.60;102498;278;97309;-56
2023/08/08 02:47:51;;;;;;;9.30;2.00;;;;;;;13.33;77.78;99691.58;102563;278;97837;-53
2023/08/08 02:50:29;;;;;;;6.00;2.10;;;;;;;13.28;77.79;99693.67;102422;277;120913;-54
2023/08/08 02:53:06;;;;;;;3.90;1.90;;;;;;;13.26;77.80;99696.54;102558;277;104962;-54
2023/08/08 02:55:55;;;;;;;6.40;2.00;;;;;;;13.26;77.73;99696.79;102549;278;114670;-53
2023/08/08 02:58:35;;;;;;;7.40;2.30;;;;;;;13.23;77.68;99704.62;102542;279;94257;-56
2023/08/08 03:01:15;;;;;;;5.90;2.10;;;;;;;13.17;77.71;99708.18;102509;278;97315;-54
2023/08/08 03:03:51;;;;;;;5.60;1.90;;;;;;;13.14;77.66;99712.63;102529;279;119555;-54
2023/08/08 03:06:30;;;;;;;5.70;2.40;;;;;;;13.13;77.72;99712.38;102554;279;105712;-57
2023/08/08 03:09:06;;;;;;;4.30;1.90;;;;;;;13.10;77.65;99715.49;102486;279;114251;-58
2023/08/08 03:11:44;;;;;;;7.70;2.20;;;;;;;13.11;77.67;99717.58;102551;278;94574;-53
2023/08/08 03:14:19;;;;;;;6.90;1.80;;;;;;;13.08;77.61;99723.06;102125;272;446188;-53
2023/08/08 03:16:54;;;;;;;4.90;2.20;;;;;;;13.07;77.71;99725.03;102513;278;119804;-53
2023/08/08 03:19:31;;;;;;;5.20;2.30;;;;;;;13.03;77.80;99728.91;102529;278;106205;-54
2023/08/08 03:22:10;;;;;;;6.00;2.10;;;;;;;13.02;77.70;99732.17;102528;278;114066;-55
2023/08/08 03:24:49;;;;;;;5.10;2.20;;;;;;;13.01;77.71;99737.57;102504;278;95761;-55
2023/08/08 03:27:26;;;;;;;5.20;2.00;;;;;;;13.02;77.62;99735.27;102552;278;96801;-57
2023/08/08 03:30:02;;;;;;;5.60;2.60;;;;;;;13.04;77.78;99739.49;102538;278;121529;-57
2023/08/08 03:32:41;;;;;;;2.90;1.80;;;;;;;13.03;77.78;99741.22;102539;278;104508;-55
2023/08/08 03:35:18;;;;;;;7.10;2.40;;;;;;;13.06;77.77;99743.75;102497;278;113864;-55
2023/08/08 03:38:00;;;;;;;5.50;2.10;;;;;;;13.08;77.91;99742.96;102540;278;94882;-54
2023/08/08 03:40:34;;;;;;;7.20;2.30;;;;;;;13.09;77.82;99749.43;102546;278;98652;-54
2023/08/08 03:43:18;;;;;;;4.10;1.90;;;;;;;13.11;77.77;99748.49;102505;278;120583;-55
2023/08/08 03:45:58;;;;;;;5.70;1.80;;;;;;;13.14;77.69;99754.14;102526;278;105160;-53
2023/08/08 03:48:37;;;;;;;6.10;1.60;;;;;;;13.17;77.56;99757.16;102467;278;114070;-52
2023/08/08 03:51:15;;;;;;;4.20;1.70;;;;;;;13.16;77.63;99765.23;102523;278;95079;-54
2023/08/08 03:53:51;;;;;;;5.30;2.20;;;;;;;13.20;77.70;99767.06;102558;278;96559;-54
2023/08/08 03:56:28;;;;;;;7.30;2.00;;;;;;;13.24;77.74;99771.91;102537;278;120619;-55
2023/08/08 03:59:08;;;;;;;4.60;2.00;;;;;;;13.26;77.57;99776.95;102521;278;105258;-55
2023/08/08 04:01:50;;;;;;;6.20;2.40;;;;;;;13.34;77.72;99780.24;102497;279;115524;-57
2023/08/08 04:04:32;;;;;;;3.90;2.00;;;;;;;13.41;77.65;99783.29;102528;278;97438;-57
2023/08/08 04:07:08;;;;;;;3.30;2.00;;;;;;;13.46;77.48;99785.35;102551;278;96849;-55
2023/08/08 04:09:43;;;;;;;5.80;2.40;;;;;;;13.52;77.48;99788.48;102553;278;119579;-55
2023/08/08 04:12:20;;;;;;;4.80;1.80;;;;;;;13.59;77.26;99793.04;102584;278;105133;-57
2023/08/08 04:15:01;;;;;;;4.10;1.80;;;;;;;13.69;77.25;99796.41;102507;279;113010;-55
2023/08/08 04:17:44;;;;;;;5.80;2.00;;;;;;;13.79;77.14;99798.42;102555;279;94930;-54
2023/08/08 04:20:26;;;;;;;6.00;1.70;;;;;;;13.91;77.10;99801.69;102534;278;97897;-54
2023/08/08 04:23:05;;;;;;;3.70;1.70;;;;;;;14.06;76.99;99805.63;102560;279;120551;-54
2023/08/08 04:25:40;;;;;;;5.80;1.90;;;;;;;14.31;76.97;99806.84;102486;279;103774;-54
2023/08/08 04:28:19;;;;;;;4.90;2.40;;;;;;;14.57;76.49;99806.40;102594;279;113420;-53
2023/08/08 04:30:57;;;;;;;4.40;2.00;;;;;;;14.77;76.38;99809.91;102553;279;93143;-55
2023/08/08 04:33:32;;;;;;;3.40;1.70;;;;;;;14.91;75.95;99812.29;102455;279;98410;-56
2023/08/08 04:36:08;;;;;;;5.60;1.80;;;;;;;15.04;75.74;99813.75;102543;279;121034;-55
2023/08/08 04:38:44;;;;;;;5.90;1.80;;;;;;;15.12;75.42;99812.59;102542;279;105837;-55
2023/08/08 04:41:21;;;;;;;4.50;1.80;;;;;;;15.22;75.18;99819.55;102529;279;114975;-55
2023/08/08 04:43:59;;;;;;;6.70;2.20;;;;;;;15.30;75.01;99821.21;102541;278;94996;-55
2023/08/08 04:46:41;;;;;;;3.10;1.60;;;;;;;15.37;74.75;99820.89;102518;279;97526;-56
2023/08/08 04:49:22;;;;;;;6.10;2.20;;;;;;;15.40;74.67;99824.54;102500;278;120917;-57
2023/08/08 04:51:59;;;;;;;5.40;1.70;;;;;;;15.55;74.30;99824.95;102547;279;104748;-57
2023/08/08 04:54:35;;;;;;;7.20;2.30;;;;;;;15.98;74.32;99833.42;102534;278;114894;-57
2023/08/08 04:57:10;;;;;;;4.70;2.10;;;;;;;16.96;73.86;99835.23;102581;278;94896;-57
2023/08/08 04:59:47;;;;;;;4.30;2.00;;;;;;;18.31;72.56;99841.70;102536;278;97550;-57
2023/08/08 05:02:24;;;;;;;4.60;1.90;;;;;;;19.85;70.85;99833.13;102552;278;120758;-54
2023/08/08 05:05:01;;;;;;;4.10;1.70;;;;;;;20.78;68.55;99830.11;102523;278;106310;-54
2023/08/08 05:07:41;;;;;;;4.00;1.70;;;;;;;19.95;67.25;99833.40;102554;279;113955;-56
2023/08/08 05:10:17;;;;;;;6.40;2.00;;;;;;;19.16;66.93;99837.80;102509;278;95333;-56
2023/08/08 05:12:52;;;;;;;;;;;;;;;18.58;66.84;99840.05;102567;278;97906;-56
2023/08/08 05:15:33;;;;;;;;;;;;;;;18.24;66.78;99844.93;102528;278;120554;-56
2023/08/08 05:18:17;;;;;;;5.30;2.00;;;;;;;17.97;66.80;99846.46;102477;279;108543;-58
2023/08/08 05:20:53;;;;;;;7.60;3.00;;;;;;;17.93;67.01;99849.73;102551;279;113665;-56
2023/08/08 05:23:32;;;;;;;5.00;2.00;;;;;;;17.92;66.68;99848.74;102501;274;95551;-56
2023/08/08 05:26:12;;;;;;;4.30;1.60;;;;;;;17.90;66.52;99855.33;102551;278;97673;-55
2023/08/08 05:28:52;;;;;;;5.10;1.90;;;;;;;17.89;66.53;99849.80;102526;278;122022;-56
2023/08/08 05:31:33;;;;;;;3.20;1.80;;;;;;;17.88;66.65;99854.48;102600;279;104664;-55
2023/08/08 05:34:10;;;;;;;4.50;1.70;;;;;;;17.82;66.73;99857.77;102452;279;115355;-55
2023/08/08 05:36:47;;;;;;;5.00;2.10;;;;;;;17.69;66.49;99861.65;102550;278;93550;-54
2023/08/08 05:39:28;;;;;;;5.10;2.00;;;;;;;17.56;66.04;99864.66;102566;279;96910;-55
2023/08/08 05:42:07;;;;;;;4.90;2.00;;;;;;;17.51;66.39;99866.30;102557;279;119217;-53
2023/08/08 05:44:44;;;;;;;3.80;1.90;;;;;;;17.52;66.47;99865.72;102541;279;104501;-53
2023/08/08 05:47:22;;;;;;;3.20;1.70;;;;;;;17.52;66.52;99868.58;102562;279;114201;-56
2023/08/08 05:50:03;;;;;;;5.50;1.70;;;;;;;17.55;66.56;99873.06;102489;279;94246;-55
2023/08/08 05:52:40;;;;;;;4.40;1.90;;;;;;;17.59;66.41;99877.45;102604;278;96352;-57
2023/08/08 05:55:18;;;;;;;3.90;1.90;;;;;;;17.61;66.42;99877.37;102572;279;120527;-57
2023/08/08 05:57:53;;;;;;;7.40;2.10;;;;;;;17.75;65.95;99876.60;102538;279;105594;-55
2023/08/08 06:00:31;;;;;;;5.30;1.90;;;;;;;17.86;65.88;99878.65;102512;278;113343;-55
2023/08/08 06:03:11;;;;;;;7.70;2.90;;;;;;;18.05;65.94;99884.65;102555;278;93277;-54
2023/08/08 06:05:49;;;;;;;3.50;1.60;;;;;;;18.19;65.86;99890.33;102568;279;95964;-54
2023/08/08 06:08:25;;;;;;;5.00;2.00;;;;;;;18.24;64.89;99890.27;102549;279;120655;-56
2023/08/08 06:10:59;;;;;;;5.80;1.90;;;;;;;18.30;64.70;99892.73;102531;279;104476;-54
2023/08/08 06:13:36;;;;;;;;;;;;;;;18.65;64.39;99895.67;102529;279;114960;-54
2023/08/08 06:16:15;;;;;;;4.80;2.50;;;;;;;18.92;64.51;99900.63;102555;278;93966;-56
2023/08/08 06:18:55;;;;;;;5.10;1.90;;;;;;;19.09;64.15;99897.31;102513;279;97744;-56
2023/08/08 06:21:34;;;;;;;5.00;1.80;;;;;;;19.47;63.75;99895.70;102567;279;120030;-55
2023/08/08 06:24:15;;;;;;;5.10;1.90;;;;;;;20.07;63.08;99893.59;102530;278;105187;-56
2023/08/08 06:27:01;;;;;;;4.80;2.10;;;;;;;20.33;61.65;99894.34;102536;279;114357;-58
2023/08/08 06:29:37;;;;;;;5.00;2.00;;;;;;;20.00;61.08;99901.77;102586;279;94069;-59
2023/08/08 06:32:22;;;;;;;6.20;2.50;;;;;;;19.81;61.33;99896.90;102599;278;97267;-56
2023/08/08 06:35:00;;;;;;;;;;;;;;;19.87;61.05;99904.13;102566;278;121553;-56
2023/08/08 06:37:45;;;;;;;6.80;2.30;;;;;;;19.81;60.69;99904.74;102554;278;104809;-55
2023/08/08 06:40:26;;;;;;;3.20;1.60;;;;;;;19.48;60.13;99911.98;102465;279;113899;-54
2023/08/08 06:43:08;;;;;;;5.90;1.80;;;;;;;19.15;60.50;99916.34;102607;279;93856;-58
2023/08/08 06:45:47;;;;;;;;;;;;;;;18.98;60.84;99922.77;102595;278;97847;-58
2023/08/08 06:48:23;;;;;;;8.50;3.00;;;;;;;18.70;61.03;99920.55;102518;279;119202;-55
2023/08/08 06:50:59;;;;;;;5.90;1.80;;;;;;;18.52;61.11;99924.41;102541;279;105865;-57
2023/08/08 06:53:35;;;;;;;7.00;2.00;;;;;;;18.93;61.52;99924.17;102634;279;114978;-58
2023/08/08 06:56:14;;;;;;;4.00;1.90;;;;;;;19.45;61.04;99925.05;102579;279;94824;-53
2023/08/08 06:58:59;;;;;;;6.20;2.10;;;;;;;19.91;60.80;99918.69;102542;279;98040;-54
2023/08/08 07:01:38;;;;;;;8.40;2.10;;;;;;;20.42;59.79;99918.27;102516;279;120014;-56
2023/08/08 07:04:17;;;;;;;4.60;2.00;;;;;;;20.55;59.53;99916.91;102528;279;106337;-56
2023/08/08 07:06:53;;;;;;;6.20;2.10;;;;;;;20.54;58.98;99917.84;102517;279;114970;-57
2023/08/08 07:09:34;;;;;;;3.30;1.70;;;;;;;20.67;58.64;99916.38;102552;278;93981;-57
2023/08/08 07:12:17;;;;;;;4.50;2.10;;;;;;;20.85;58.07;99918.22;102560;279;98034;-54
2023/08/08 07:14:57;;;;;;;5.70;2.10;;;;;;;21.10;57.30;99915.31;102504;278;120880;-54
2023/08/08 07:17:35;;;;;;;7.40;2.30;;;;;;;21.44;57.32;99913.88;102591;278;106221;-57
2023/08/08 07:20:15;;;;;;;5.40;1.80;;;;;;;21.63;56.83;99916.70;102531;278;112881;-57
2023/08/08 07:22:56;;;;;;;3.90;1.50;;;;;;;21.69;56.15;99917.42;102556;279;94361;-57
2023/08/08 07:25:34;;;;;;;5.40;2.00;;;;;;;22.06;55.95;99914.36;102539;278;96579;-57
2023/08/08 07:28:19;;;;;;;7.30;2.20;;;;;;;22.27;55.27;99916.40;102604;278;121124;-57
2023/08/08 07:30:56;;;;;;;5.60;2.20;;;;;;;21.62;55.16;99915.11;102649;278;105418;-59
2023/08/08 07:33:35;;;;;;;4.30;1.90;;;;;;;21.10;55.05;99926.23;102631;278;115983;-56
2023/08/08 07:36:18;;;;;;;4.90;1.90;;;;;;;20.81;54.95;99927.59;102572;278;94335;-58
2023/08/08 07:38:59;;;;;;;7.10;1.70;;;;;;;20.52;55.46;99927.21;102621;278;96780;-57
2023/08/08 07:41:38;;;;;;;5.00;2.00;;;;;;;20.38;56.25;99927.13;102615;278;121748;-54
2023/08/08 07:44:16;;;;;;;6.80;1.80;;;;;;;20.48;56.34;99932.89;102519;278;106171;-54
2023/08/08 07:46:53;;;;;;;6.90;2.10;;;;;;;20.68;55.95;99930.22;102549;278;114589;-55
2023/08/08 07:49:30;;;;;;;3.20;1.80;;;;;;;20.87;55.66;99933.00;102520;278;94334;-55
2023/08/08 07:52:08;;;;;;;4.80;2.10;;;;;;;20.70;55.11;99934.08;102552;278;98015;-56
2023/08/08 07:54:47;;;;;;;5.20;1.90;;;;;;;20.46;55.23;99933.76;102562;278;119843;-55
2023/08/08 07:57:25;;;;;;;4.60;1.60;;;;;;;20.30;55.38;99930.52;102547;278;103086;-56
2023/08/08 08:00:11;;;;;;;5.20;1.70;;;;;;;20.34;55.58;99931.65;102493;279;113389;-55
2023/08/08 08:02:56;;;;;;;4.00;2.20;;;;;;;20.70;55.36;99932.25;102582;278;94992;-56
2023/08/08 08:05:30;;;;;;;5.10;1.80;;;;;;;21.51;54.90;99933.34;102534;278;98253;-55
2023/08/08 08:08:08;;;;;;;6.90;1.90;;;;;;;22.10;54.63;99925.42;102567;278;119200;-54
2023/08/08 08:10:50;;;;;;;5.80;2.00;;;;;;;23.11;54.26;99931.52;102548;279;103617;-53
2023/08/08 08:13:31;;;;;;;5.10;1.80;;;;;;;23.74;52.77;99926.37;102542;278;114120;-66
2023/08/08 08:16:07;;;;;;;4.90;2.00;;;;;;;25.29;52.47;99921.21;102513;278;93697;-67
2023/08/08 08:18:45;;;;;;;3.40;1.80;;;;;;;26.99;50.19;99925.63;102527;278;97447;-66
2023/08/08 08:21:30;;;;;;;5.40;1.90;;;;;;;28.16;48.01;99915.38;102533;278;120959;-65
2023/08/08 08:24:05;;;;;;;4.60;1.80;;;;;;;28.23;45.94;99916.83;102587;278;106062;-66
2023/08/08 08:26:43;;;;;;;4.10;1.70;;;;;;;27.35;45.35;99924.30;102492;279;113282;-65
2023/08/08 08:29:23;;;;;;;3.30;1.80;;;;;;;27.64;44.42;99920.73;102492;278;92810;-66
2023/08/08 08:31:58;;;;;;;3.10;1.70;;;;;;;27.72;43.11;99924.04;102535;279;96437;-64
2023/08/08 08:34:42;;;;;;;5.90;1.80;;;;;;;28.14;43.36;99918.48;102549;279;119238;-65
2023/08/08 08:37:17;;;;;;;3.80;1.80;;;;;;;28.58;42.30;99919.97;102558;278;105745;-65
2023/08/08 08:40:01;;;;;;;4.30;1.80;;;;;;;28.26;41.14;99918.96;102552;279;113630;-65
2023/08/08 08:42:38;;;;;;;5.30;1.90;;;;;;;27.20;41.23;99922.37;102536;278;95127;-64
2023/08/08 08:45:15;;;;;;;4.70;1.70;;;;;;;26.41;41.41;99921.38;102608;279;96729;-58
2023/08/08 08:48:02;;;;;;;3.50;1.40;;;;;;;26.51;42.57;99924.64;102437;280;120443;-55
2023/08/08 08:50:41;;;;;;;3.30;1.80;;;;;;;26.67;41.92;99921.20;102547;279;105754;-55
2023/08/08 08:53:22;;;;;;;5.80;1.80;;;;;;;26.05;41.54;99927.20;102535;279;112494;-56
2023/08/08 08:56:04;;;;;;;6.00;2.20;;;;;;;25.52;42.01;99926.20;102522;278;93376;-55
2023/08/08 08:58:40;;;;;;;4.70;1.60;;;;;;;25.15;42.61;99929.13;102514;278;97963;-56
2023/08/08 09:01:28;;;;;;;4.20;1.80;;;;;;;24.68;42.53;99927.41;102528;278;121273;-58
2023/08/08 09:04:07;;;;;;;6.60;2.50;;;;;;;24.00;42.90;99931.86;102638;267;105862;-58
2023/08/08 09:06:50;;;;;;;6.40;1.90;;;;;;;24.11;44.13;99933.22;102574;278;113675;-53
2023/08/08 09:09:26;;;;;;;4.60;1.90;;;;;;;24.60;44.20;99926.01;102514;278;93583;-55
2023/08/08 09:12:09;;;;;;;4.90;1.80;;;;;;;24.86;43.51;99928.86;102575;279;97677;-54
2023/08/08 09:14:57;;;;;;;3.00;1.50;;;;;;;24.76;43.26;99933.99;102554;279;120700;-53
2023/08/08 09:17:41;;;;;;;5.20;1.50;;;;;;;24.39;42.68;99933.91;102406;279;106407;-56
2023/08/08 09:20:18;;;;;;;6.70;1.70;;;;;;;24.00;43.06;99933.45;102484;278;113871;-55
2023/08/08 09:22:58;;;;;;;6.20;1.50;;;;;;;24.18;43.24;99936.10;102532;279;94898;-54
2023/08/08 09:25:37;;;;;;;4.90;1.80;;;;;;;24.25;43.54;99935.36;102540;278;97614;-53
2023/08/08 09:28:18;;;;;;;6.20;1.90;;;;;;;24.09;43.41;99932.40;102527;275;119701;-54
2023/08/08 09:31:00;;;;;;;4.40;1.90;;;;;;;23.78;43.25;99943.28;102555;278;105004;-56
2023/08/08 09:33:39;;;;;;;3.50;1.40;;;;;;;23.33;43.10;99951.48;102564;279;114305;-58
2023/08/08 09:36:19;;;;;;;3.30;1.60;;;;;;;22.92;43.51;99952.55;102639;278;93399;-56
2023/08/08 09:38:54;;;;;;;6.30;1.80;;;;;;;22.57;43.73;99956.80;102673;279;98200;-57
2023/08/08 09:41:32;;;;;;;4.50;1.50;;;;;;;22.22;44.25;99960.15;102686;278;120920;-53
2023/08/08 09:44:11;;;;;;;3.30;1.70;;;;;;;22.16;44.99;99957.46;102531;278;105594;-53
2023/08/08 09:46:50;;;;;;;3.80;1.50;;;;;;;22.29;45.08;99956.85;102583;278;114701;-54
2023/08/08 09:49:27;;;;;;;5.10;1.70;;;;;;;22.37;45.36;99956.77;102480;279;92984;-53
2023/08/08 09:52:09;;;;;;;3.00;1.50;;;;;;;22.59;46.19;99956.73;102584;279;96907;-56
2023/08/08 09:54:50;;;;;;;3.10;1.20;;;;;;;22.96;46.26;99957.88;102572;278;118611;-56
2023/08/08 09:57:33;;;;;;;4.30;1.50;;;;;;;23.21;45.69;99956.34;102568;267;105765;-55
2023/08/08 10:00:15;;;;;;;3.20;1.30;;;;;;;23.25;44.89;99954.11;102542;279;115540;-56
2023/08/08 10:02:53;;;;;;;5.50;1.50;;;;;;;22.98;44.46;99962.83;102585;279;94834;-55
2023/08/08 10:05:32;;;;;;;3.40;1.70;;;;;;;23.14;45.01;99956.20;102525;278;95869;-56
2023/08/08 10:08:10;;;;;;;5.50;1.60;;;;;;;23.27;44.53;99956.09;102604;279;120753;-58
2023/08/08 10:10:49;;;;;;;3.20;1.30;;;;;;;23.17;44.03;99950.02;102661;279;105804;-57
2023/08/08 10:13:28;;;;;;;5.60;1.70;;;;;;;22.74;43.79;99946.92;102519;279;114158;-55
2023/08/08 10:16:11;;;;;;;3.00;1.30;;;;;;;22.73;44.64;99945.61;102540;278;93834;-54
2023/08/08 10:18:59;;;;;;;3.30;1.30;;;;;;;22.61;44.14;99947.60;102654;278;96690;-58
2023/08/08 10:21:37;;;;;;;3.00;1.30;;;;;;;22.42;43.92;99945.32;102601;279;120536;-55
2023/08/08 10:24:22;;;;;;;2.90;1.60;;;;;;;22.30;43.77;99950.95;102536;279;104897;-56
2023/08/08 10:27:06;;;;;;;5.20;1.40;;;;;;;22.14;43.44;99951.52;102560;279;113555;-55
2023/08/08 10:29:52;;;;;;;2.20;1.00;;;;;;;21.91;43.64;99952.49;102520;278;94319;-55
2023/08/08 10:32:44;;;;;;;2.10;1.10;;;;;;;21.81;43.71;99950.88;102589;279;97267;-58
2023/08/08 10:35:24;;;;;;;2.20;1.20;;;;;;;22.17;44.25;99954.81;102689;278;121424;-57
2023/08/08 10:38:01;;;;;;;2.20;1.00;;;;;;;22.53;44.54;99949.00;102569;279;106233;-54
2023/08/08 10:40:48;;;;;;;2.60;1.10;;;;;;;22.88;44.40;99951.30;102522;278;114443;-55
2023/08/08 10:43:32;;;;;;;5.00;1.30;;;;;;;23.09;44.11;99950.89;102512;279;94078;-53
2023/08/08 10:46:15;;;;;;;3.90;1.10;;;;;;;23.39;43.82;99951.20;102553;278;97284;-54
2023/08/08 10:49:01;;;;;;;3.40;1.20;;;;;;;23.63;42.80;99948.24;102521;279;120276;-54
2023/08/08 10:51:46;;;;;;;3.60;1.20;;;;;;;23.71;42.68;99955.59;102554;279;105921;-57
2023/08/08 10:54:27;;;;;;;3.00;1.10;;;;;;;23.47;42.03;99958.77;102651;278;115265;-57
2023/08/08 10:57:19;;;;;;;3.10;1.30;;;;;;;23.37;41.64;99951.47;102595;279;94112;-57
2023/08/08 11:00:28;;;;;;;3.20;1.50;;;;;;;23.34;42.02;99962.29;102595;278;98201;-58
2023/08/08 11:03:08;;;;;;;3.20;0.90;;;;;;;23.20;41.43;99954.75;102529;278;120048;-62
2023/08/08 11:05:48;;;;;;;2.00;1.20;;;;;;;23.09;40.86;99958.98;102544;279;104686;-61
2023/08/08 11:08:32;;;;;;;2.10;1.00;;;;;;;22.98;40.82;99966.20;102547;279;113428;-57
2023/08/08 11:11:18;;;;;;;4.70;1.40;;;;;;;22.81;40.73;99962.00;102557;278;94260;-53
2023/08/08 11:14:00;;;;;;;2.70;1.30;;;;;;;22.61;40.67;99965.56;102167;279;504137;-55
2023/08/08 11:16:43;;;;;;;4.80;1.30;;;;;;;22.43;40.90;99966.30;102481;279;120796;-55
2023/08/08 11:19:23;;;;;;;3.40;1.20;;;;;;;22.42;41.56;99968.83;102539;278;104433;-55
2023/08/08 11:22:00;;;;;;;2.80;1.00;;;;;;;22.43;40.89;99970.15;102467;279;115874;-53
2023/08/08 11:24:45;;;;;;;2.90;1.20;;;;;;;22.66;41.71;99970.18;102520;278;94331;-54
2023/08/08 11:27:22;;;;;;;2.30;1.10;;;;;;;22.85;41.92;99973.34;102575;278;97846;-54
2023/08/08 11:30:04;;;;;;;2.90;1.00;;;;;;;22.87;41.66;99980.50;102512;279;119963;-53
2023/08/08 11:32:44;;;;;;;4.30;1.10;;;;;;;22.72;41.75;99980.77;102645;279;105383;-57
2023/08/08 11:35:25;;;;;;;3.00;0.90;;;;;;;22.53;41.80;99983.84;102653;278;112456;-58
2023/08/08 11:38:14;;;;;;;1.50;1.00;;;;;;;22.28;41.53;99982.05;102554;278;92941;-54
2023/08/08 11:40:52;;;;;;;2.80;0.90;;;;;;;22.18;41.80;99985.64;102537;278;98372;-54
2023/08/08 11:43:35;;;;;;;3.70;1.00;;;;;;;22.18;41.83;99981.07;102549;278;120246;-58
2023/08/08 11:46:24;;;;;;;2.30;1.00;;;;;;;22.07;41.52;99983.88;102592;278;105002;-55
2023/08/08 11:49:07;;;;;;;2.10;0.90;;;;;;;22.27;41.86;99981.95;102488;278;113453;-57
2023/08/08 11:51:47;;;;;;;1.10;0.60;;;;;;;22.69;41.89;99977.40;102530;278;93803;-56
2023/08/08 11:54:28;;;;;;;1.40;1.00;;;;;;;22.76;41.20;99979.97;102546;278;97286;-55
2023/08/08 11:57:06;;;;;;;1.60;0.90;;;;;;;22.78;41.15;99975.30;102566;278;120172;-56
2023/08/08 11:59:46;;;;;;;2.40;0.90;;;;;;;22.79;41.05;99978.14;102573;278;105512;-55
2023/08/08 12:02:23;;;;;;;1.90;0.90;;;;;;;22.55;40.52;99977.91;102544;278;114525;-57
2023/08/08 12:05:13;;;;;;;2.20;1.00;;;;;;;22.37;40.69;99984.75;102453;279;95062;-56
2023/08/08 12:07:53;;;;;;;4.00;0.90;;;;;;;22.28;40.71;99985.67;102557;278;96596;-53
2023/08/08 12:10:29;;;;;;;3.10;1.00;;;;;;;22.43;41.08;99983.52;102539;278;120294;-56
2023/08/08 12:13:12;;;;;;;3.90;0.80;;;;;;;22.71;41.29;99981.03;102530;279;106182;-55
2023/08/08 12:15:50;;;;;;;2.20;0.70;;;;;;;22.87;40.82;99984.08;102523;278;114660;-54
2023/08/08 12:18:30;;;;;;;3.10;1.10;;;;;;;22.78;40.90;99988.73;102535;278;94091;-64
2023/08/08 12:21:12;;;;;;;2.40;1.00;;;;;;;22.79;41.13;99987.02;102571;278;97354;-55
2023/08/08 12:23:52;;;;;;;3.00;0.90;;;;;;;22.75;40.92;99991.89;102519;278;119975;-55
2023/08/08 12:26:28;;;;;;;2.70;0.90;;;;;;;22.57;40.78;99994.70;102546;278;104748;-64